Takotna, Alaska
Current Conditions -  °F | °C
As of 10:55 AM on Tuesday 21 Oct 2014 (Local Time) from PATL Reporting Station
Clear Clear  
Wind Chill: 26°   Ceiling: Unl
Heat Index: 26°   Visibility: 10mi
Dew Point: 25°   Wind: 0mph
Humidity: 98%   Direction: NA
Pressure: 29.41"   Gusts: NA
Location:  62.99°N, 156.09°W
Report Text: PATL 211855Z AUTO 00000KT 10SM CLR M03/M04 A2941 RMK AO2 SLP977 T10351038 $
Loading
Personal Weather Stations






























Interactive Weather Map
Tropical Storm Tracking
New forecast layout! Learn more

10-Day Weather Forecast

Advertisements
Track Severe Weather on mobile